Johnson City, Oregon
Current Conditions -  °F | °C
As of 10:01 AM on Monday 22 Dec 2014 (Local Time) from KPDX Reporting Station
Haze Haze  
Wind Chill: 49°   Ceiling: 300
Heat Index: 49°   Visibility: 0.5mi
Dew Point: 49°   Wind: 0mph
Humidity: 100%   Direction: NA
Pressure: 30.39"   Gusts: NA
Location:  45.4079°N, 122.613°W
Report Text: KPDX 221801Z 00000KT 1/2SM R10R/1800V3000FT BR OVC003 09/09 A3039 RMK AO2 SFC VIS 1 1/2 T00940094
Loading
Personal Weather Stations






























Interactive Weather Map New forecast layout! Learn more

10-Day Weather Forecast

Advertisements
Track Severe Weather on mobile